Gaylord, MI

8:43 AM EDT on May 24, 2015 (GMT -0400)
Grayling | | Change Station
CLOSE
Current Station
Airport
Location: Grayling,
Elevation: 1158 ft
Nearby Weather Stations

Elev 1158 ft 44.68 °N, 84.73 °W | Updated 24 minutes ago

Partly Cloudy
Partly Cloudy
55 °F
Feels Like 55 °F
N
0
Wind Variable Wind from North

Today
High -- | Low -- °F
--% Chance of Precip.
Yesterday
High -- | Low -- °F
Precip. -- in
6:00 AM 9:10 PM
Waxing Crescent, 39% visible
Pressure 30.23 in
Visibility 10.0 miles
Clouds Scattered Clouds 10000 ft
Dew Point 43 °F
Humidity 63%
Rainfall 0.00 in
Snow Depth Not available.
UV 1 out of 12
Pollen 9.50 out of 12
Air Quality Not available.
Flu Activity Sporadic
METAR KGOV 241219Z AUTO 00000KT 10SM SCT100 13/06 A3023 RMK AO2

More Conditions Fewer Conditions

Pressure 30.23 in
Visibility 10.0 miles
Clouds Scattered Clouds 10000 ft
Dew Point 43 °F
Humidity 63%
Rainfall 0.00 in
Snow Depth Not available.
UV 1 out of 12
Pollen 9.50 out of 12
Air Quality Not available.
Flu Activity Sporadic
METAR KGOV 241219Z AUTO 00000KT 10SM SCT100 13/06 A3023 RMK AO2

More Conditions Fewer Conditions

Nowcast | as of 8:00 am EDT on May 24, 2015

At 9 am...partly cloudy. Temperature 60. Southwest winds 6 mph. At 11 am...mostly cloudy. Temperature 67. Southwest winds 8 mph. At 1 PM...mostly cloudy. Temperature 75. Southwest winds 10 mph. At 3 PM...cloudy. Temperature 76. Southwest winds 11 mph.

×

10-Day Weather Forecast

Almanac

Astronomy

May. 24, 2015 Rise Set
Actual Time
Civil Twilight
Nautical Twilight
Astronomical Twilight
Moon
Length of Visible Light
Length of Day
Tomorrow will be .
, % of the Moon is Illuminated

Today's Extremes

State Highs State Lows

Community

WunderPhotos

Upload Photos

1,823,722 photos uploaded!

WunderBlogs® & News

Nearby

Air Quality

  Air Quality AQ Index Pollutant
Not available.

Snow Depth

Station Depth Elevation

Earthquake Activity

City Distance Mag. Time & Date
Minimum magnitude displayed is 2.5.

Coastal Water Temperatures

Place Temperature

Stations

Nearby Weather Stations

Station Location Temp. Windchill Dew Point Humidity Wind Precip. Elev Updated Type